createdAt,value
2019-03-18T00:00:47.275Z,2.30
2019-03-18T00:03:13.255Z,2.13
2019-03-18T00:05:39.209Z,2.34
2019-03-18T00:08:05.172Z,2.36
2019-03-18T00:10:31.518Z,2.36
2019-03-18T00:12:57.374Z,2.36
2019-03-18T00:15:23.442Z,2.37
2019-03-18T00:17:49.319Z,2.39
2019-03-18T00:20:15.257Z,2.38
2019-03-18T00:22:41.260Z,2.38
2019-03-18T00:25:08.211Z,2.37
2019-03-18T00:27:34.058Z,2.38
2019-03-18T00:29:59.956Z,2.37
2019-03-18T00:32:25.833Z,2.38
2019-03-18T00:34:51.774Z,2.37
2019-03-18T00:37:17.665Z,2.37
2019-03-18T00:39:43.520Z,2.38
2019-03-18T00:42:09.404Z,2.41
2019-03-18T00:44:35.299Z,2.42
2019-03-18T00:47:01.146Z,2.43
2019-03-18T00:49:27.364Z,2.46
2019-03-18T00:51:53.342Z,2.48
2019-03-18T00:54:19.272Z,2.48
2019-03-18T00:56:45.057Z,2.48
2019-03-18T00:59:11.030Z,2.49
2019-03-18T01:01:36.979Z,2.50
2019-03-18T01:04:02.962Z,2.49
2019-03-18T01:06:29.051Z,2.47
2019-03-18T01:08:55.019Z,2.47
2019-03-18T01:11:20.868Z,2.48
2019-03-18T01:13:46.757Z,2.50
2019-03-18T01:16:12.714Z,2.51
2019-03-18T01:18:38.550Z,2.52
2019-03-18T01:21:04.428Z,2.53
2019-03-18T01:23:30.299Z,2.53
2019-03-18T01:25:56.151Z,2.53
2019-03-18T01:28:22.129Z,2.55
2019-03-18T01:30:47.980Z,2.57
2019-03-18T01:33:13.821Z,2.60
2019-03-18T01:35:40.089Z,2.61
2019-03-18T01:38:05.993Z,2.62
2019-03-18T01:40:31.840Z,2.64
2019-03-18T01:42:57.742Z,2.65
2019-03-18T01:45:23.664Z,2.67
2019-03-18T01:47:49.481Z,2.67
2019-03-18T01:50:15.443Z,2.68
2019-03-18T01:52:41.506Z,2.70
2019-03-18T01:55:07.500Z,2.68
2019-03-18T01:57:33.372Z,2.69
2019-03-18T01:59:59.389Z,2.69
2019-03-18T02:02:25.266Z,2.50
2019-03-18T02:04:51.143Z,2.68
2019-03-18T02:07:17.115Z,2.69
2019-03-18T02:09:43.148Z,2.71
2019-03-18T02:12:09.011Z,2.73
2019-03-18T02:14:34.860Z,2.72
2019-03-18T02:17:00.774Z,2.73
2019-03-18T02:19:26.642Z,2.71
2019-03-18T02:21:52.482Z,2.71
2019-03-18T02:24:18.363Z,2.73
2019-03-18T02:26:44.215Z,2.73
2019-03-18T02:29:10.090Z,2.74
2019-03-18T02:31:36.061Z,2.74
2019-03-18T02:34:01.925Z,2.74
2019-03-18T02:36:27.788Z,2.74
2019-03-18T02:38:53.878Z,2.75
2019-03-18T02:41:19.729Z,2.75
2019-03-18T02:43:45.571Z,2.75
2019-03-18T02:46:11.431Z,2.75
2019-03-18T02:48:37.312Z,2.76
2019-03-18T02:51:03.375Z,2.77
2019-03-18T02:53:29.225Z,2.78
2019-03-18T02:55:55.072Z,2.77
2019-03-18T02:58:21.044Z,2.78
2019-03-18T03:00:47.000Z,2.79
2019-03-18T03:03:12.848Z,2.80
2019-03-18T03:05:38.786Z,2.79
2019-03-18T03:08:04.714Z,2.82
2019-03-18T03:10:30.560Z,2.83
2019-03-18T03:12:56.404Z,2.84
2019-03-18T03:15:22.281Z,2.84
2019-03-18T03:17:48.131Z,2.85
2019-03-18T03:20:14.079Z,2.85
2019-03-18T03:22:40.046Z,2.85
2019-03-18T03:25:06.771Z,2.84
2019-03-18T03:27:32.738Z,2.84
2019-03-18T03:29:58.664Z,2.84
2019-03-18T03:32:24.545Z,2.85
2019-03-18T03:34:50.502Z,2.84
2019-03-18T03:37:16.494Z,2.83
2019-03-18T03:39:42.548Z,2.83
2019-03-18T03:42:08.509Z,2.84
2019-03-18T03:44:34.411Z,2.85
2019-03-18T03:47:00.244Z,2.84
2019-03-18T03:49:26.109Z,2.83
2019-03-18T03:51:52.183Z,2.83
2019-03-18T03:54:18.024Z,2.82
2019-03-18T03:56:43.985Z,2.84
2019-03-18T03:59:09.962Z,2.84
2019-03-18T04:01:35.956Z,2.83
2019-03-18T04:04:02.045Z,2.83
2019-03-18T04:06:27.925Z,2.82
2019-03-18T04:08:53.863Z,2.82
2019-03-18T04:11:19.734Z,2.83
2019-03-18T04:13:45.716Z,2.83
2019-03-18T04:16:11.592Z,2.83
2019-03-18T04:18:37.419Z,2.83
2019-03-18T04:21:03.306Z,2.83
2019-03-18T04:23:29.271Z,2.82
2019-03-18T04:25:55.108Z,2.82
2019-03-18T04:28:20.965Z,2.82
2019-03-18T04:30:46.834Z,2.82
2019-03-18T04:33:12.807Z,2.83
2019-03-18T04:35:38.788Z,2.83
2019-03-18T04:38:04.657Z,2.85
2019-03-18T04:40:30.608Z,2.85
2019-03-18T04:42:56.495Z,2.86
2019-03-18T04:45:22.332Z,2.89
2019-03-18T04:47:48.188Z,2.88
2019-03-18T04:50:14.183Z,2.88
2019-03-18T04:52:40.224Z,2.89
2019-03-18T04:55:06.178Z,2.90
2019-03-18T04:57:32.052Z,2.91
2019-03-18T04:59:57.907Z,2.92
2019-03-18T05:02:23.801Z,2.92
2019-03-18T05:04:49.792Z,2.93
2019-03-18T05:07:15.650Z,2.94
2019-03-18T05:09:41.487Z,2.94
2019-03-18T05:12:07.373Z,2.95
2019-03-18T05:14:33.229Z,2.96
2019-03-18T05:16:59.080Z,2.95
2019-03-18T05:19:24.955Z,2.93
2019-03-18T05:21:50.822Z,2.93
2019-03-18T05:24:16.666Z,2.95
2019-03-18T05:26:42.551Z,2.97
2019-03-18T05:29:08.494Z,2.98
2019-03-18T05:31:34.361Z,2.99
2019-03-18T05:34:00.251Z,3.00
2019-03-18T05:36:26.108Z,3.01
2019-03-18T05:38:51.977Z,3.02
2019-03-18T05:41:17.968Z,3.01
2019-03-18T05:43:43.814Z,3.02
2019-03-18T05:46:09.652Z,3.03
2019-03-18T05:48:35.524Z,3.02
2019-03-18T05:51:01.376Z,3.03
2019-03-18T05:53:27.434Z,3.04
2019-03-18T05:55:53.305Z,3.05
2019-03-18T05:58:19.160Z,3.04
2019-03-18T06:00:45.031Z,3.04
2019-03-18T06:03:11.090Z,3.04
2019-03-18T06:05:37.044Z,3.02
2019-03-18T06:08:02.845Z,3.01
2019-03-18T06:10:28.847Z,3.03
2019-03-18T06:12:54.730Z,3.03
2019-03-18T06:15:20.571Z,3.02
2019-03-18T06:17:52.497Z,3.02
2019-03-18T06:20:14.109Z,3.04
2019-03-18T06:22:39.983Z,3.04
2019-03-18T06:25:06.760Z,3.05
2019-03-18T06:27:32.639Z,3.06
2019-03-18T06:29:58.490Z,3.04
2019-03-18T06:32:24.363Z,3.03
2019-03-18T06:34:50.303Z,3.02
2019-03-18T06:37:16.158Z,3.04
2019-03-18T06:39:42.006Z,3.07
2019-03-18T06:42:07.990Z,3.08
2019-03-18T06:44:33.857Z,3.12
2019-03-18T06:46:59.804Z,3.15
2019-03-18T06:49:25.674Z,3.15
2019-03-18T06:51:51.619Z,3.14
2019-03-18T06:54:17.758Z,3.14
2019-03-18T06:56:43.611Z,3.15
2019-03-18T06:59:09.481Z,3.17
2019-03-18T07:01:35.352Z,3.18
2019-03-18T07:04:01.297Z,3.21
2019-03-18T07:06:27.132Z,3.19
2019-03-18T07:08:53.044Z,3.20
2019-03-18T07:11:18.851Z,3.23
2019-03-18T07:13:44.709Z,3.26
2019-03-18T07:16:10.768Z,3.28
2019-03-18T07:18:36.622Z,3.29
2019-03-18T07:21:02.502Z,3.32
2019-03-18T07:23:28.456Z,3.34
2019-03-18T07:25:54.312Z,3.36
2019-03-18T07:28:20.150Z,3.39
2019-03-18T07:30:46.008Z,3.40
2019-03-18T07:33:12.790Z,3.43
2019-03-18T07:35:38.795Z,3.45
2019-03-18T07:38:04.644Z,3.48
2019-03-18T07:40:32.405Z,3.51
2019-03-18T07:42:58.370Z,3.53
2019-03-18T07:45:24.318Z,3.55
2019-03-18T07:47:50.160Z,3.59
2019-03-18T07:50:16.020Z,3.62
2019-03-18T07:52:41.895Z,3.65
2019-03-18T07:55:08.083Z,3.68
2019-03-18T07:57:34.036Z,3.70
2019-03-18T08:00:00.140Z,3.72
2019-03-18T08:02:26.158Z,3.76
2019-03-18T08:04:52.005Z,3.77
2019-03-18T08:07:17.876Z,3.79
2019-03-18T08:09:43.770Z,3.80
2019-03-18T08:12:09.639Z,3.82
2019-03-18T08:14:35.593Z,3.85
2019-03-18T08:17:01.464Z,3.87
2019-03-18T08:19:27.328Z,3.88
2019-03-18T08:21:53.175Z,3.90
2019-03-18T08:24:19.048Z,3.89
2019-03-18T08:26:45.012Z,3.90
2019-03-18T08:29:10.882Z,3.91
2019-03-18T08:31:36.736Z,3.95
2019-03-18T08:34:02.704Z,3.95
2019-03-18T08:36:28.572Z,3.97
2019-03-18T08:38:54.449Z,3.98
2019-03-18T08:41:20.315Z,4.00
2019-03-18T08:43:46.288Z,4.01
2019-03-18T08:46:12.229Z,4.05
2019-03-18T08:48:38.107Z,4.05
2019-03-18T08:51:04.084Z,4.06
2019-03-18T08:53:29.933Z,4.07
2019-03-18T08:55:55.972Z,4.07
2019-03-18T08:58:21.814Z,4.07
2019-03-18T09:00:47.782Z,4.10
2019-03-18T09:03:13.740Z,4.12
2019-03-18T09:05:39.586Z,4.13
2019-03-18T09:08:05.438Z,4.15
2019-03-18T09:10:31.333Z,4.17
2019-03-18T09:12:57.315Z,4.20
2019-03-18T09:15:23.252Z,4.20
2019-03-18T09:17:49.040Z,4.20
2019-03-18T09:20:15.376Z,4.21
2019-03-18T09:22:41.267Z,4.25
2019-03-18T09:25:08.016Z,4.27
2019-03-18T09:27:33.881Z,4.29
2019-03-18T09:29:59.770Z,4.27
2019-03-18T09:32:25.625Z,4.27
2019-03-18T09:34:54.543Z,4.25
2019-03-18T09:37:19.237Z,4.24
2019-03-18T09:39:45.086Z,4.20
2019-03-18T09:42:10.972Z,4.16
2019-03-18T09:44:36.968Z,4.15
2019-03-18T09:47:02.931Z,4.18
2019-03-18T09:49:28.788Z,4.20
2019-03-18T09:51:54.705Z,4.23
2019-03-18T09:54:20.569Z,4.24
2019-03-18T09:56:46.601Z,4.21
2019-03-18T09:59:12.456Z,4.20
2019-03-18T10:01:38.335Z,4.21
2019-03-18T10:04:04.285Z,4.21
2019-03-18T10:06:30.166Z,4.22
2019-03-18T10:08:56.036Z,4.26
2019-03-18T10:11:22.038Z,4.28
2019-03-18T10:13:47.891Z,4.28
2019-03-18T10:16:13.750Z,4.31
2019-03-18T10:18:39.832Z,4.37
2019-03-18T10:21:05.689Z,4.42
2019-03-18T10:23:31.549Z,4.44
2019-03-18T10:25:57.448Z,4.44
2019-03-18T10:28:23.285Z,4.46
2019-03-18T10:30:49.135Z,4.47
2019-03-18T10:33:15.005Z,4.46
2019-03-18T10:35:40.882Z,4.50
2019-03-18T10:38:06.730Z,4.54
2019-03-18T10:40:32.714Z,4.56
2019-03-18T10:42:58.579Z,4.58
2019-03-18T10:45:26.036Z,4.59
2019-03-18T10:47:54.711Z,4.62
2019-03-18T10:50:19.694Z,4.64
2019-03-18T10:52:45.653Z,4.66
2019-03-18T10:55:11.761Z,4.65
2019-03-18T10:57:37.745Z,4.63
2019-03-18T11:00:05.178Z,4.60
2019-03-18T11:02:31.036Z,4.59
2019-03-18T11:04:57.078Z,4.58
2019-03-18T11:07:22.937Z,4.60
2019-03-18T11:09:48.808Z,4.61
2019-03-18T11:12:14.722Z,4.62
2019-03-18T11:14:40.604Z,4.64
2019-03-18T11:17:06.491Z,4.65
2019-03-18T11:19:32.350Z,4.65
2019-03-18T11:21:58.192Z,4.68
2019-03-18T11:24:24.254Z,4.74
2019-03-18T11:26:50.126Z,4.83
2019-03-18T11:29:16.090Z,4.87
2019-03-18T11:31:41.948Z,4.92
2019-03-18T11:34:07.899Z,4.97
2019-03-18T11:36:33.797Z,5.01
2019-03-18T11:38:59.619Z,5.05
2019-03-18T11:41:25.490Z,5.06
2019-03-18T11:43:51.370Z,5.11
2019-03-18T11:46:17.234Z,5.15
2019-03-18T11:48:43.215Z,4.99
2019-03-18T11:51:09.136Z,5.22
2019-03-18T11:53:35.074Z,5.24
2019-03-18T11:56:00.916Z,5.27
2019-03-18T11:58:27.474Z,5.30
2019-03-18T12:00:53.443Z,5.31
2019-03-18T12:03:19.328Z,5.34
2019-03-18T12:05:45.166Z,5.36
2019-03-18T12:08:11.031Z,5.36
2019-03-18T12:10:37.028Z,5.34
2019-03-18T12:13:03.025Z,5.34
2019-03-18T12:15:28.976Z,5.34
2019-03-18T12:17:54.957Z,5.18
2019-03-18T12:20:24.629Z,5.37
2019-03-18T12:22:48.437Z,5.39
2019-03-18T12:25:14.322Z,5.42
2019-03-18T12:27:40.254Z,5.43
2019-03-18T12:30:18.838Z,5.46
2019-03-18T12:32:44.808Z,5.48
2019-03-18T12:35:10.784Z,5.50
2019-03-18T12:37:36.640Z,5.51
2019-03-18T12:40:03.006Z,5.52
2019-03-18T12:42:28.943Z,5.54
2019-03-18T12:44:54.843Z,5.55
2019-03-18T12:47:20.822Z,5.58
2019-03-18T12:49:46.670Z,5.60
2019-03-18T12:52:12.558Z,5.60
2019-03-18T12:54:38.425Z,5.59
2019-03-18T12:57:04.486Z,5.56
2019-03-18T12:59:30.577Z,5.55
2019-03-18T13:01:56.422Z,5.58
2019-03-18T13:04:22.334Z,5.60
2019-03-18T13:06:48.206Z,5.57
2019-03-18T13:09:14.061Z,5.53
2019-03-18T13:11:39.894Z,5.49
2019-03-18T13:14:05.815Z,5.46
2019-03-18T13:16:31.673Z,5.45
2019-03-18T13:18:57.547Z,5.44
2019-03-18T13:21:23.441Z,5.45
2019-03-18T13:23:49.328Z,5.46
2019-03-18T13:26:15.238Z,5.48
2019-03-18T13:28:41.115Z,5.48
2019-03-18T13:31:07.088Z,5.47
2019-03-18T13:33:32.953Z,5.47
2019-03-18T13:35:58.822Z,5.45
2019-03-18T13:38:24.792Z,5.45
2019-03-18T13:40:50.657Z,5.45
2019-03-18T13:43:16.616Z,5.45
2019-03-18T13:45:54.380Z,5.42
2019-03-18T13:48:10.162Z,5.38
2019-03-18T13:50:36.014Z,5.37
2019-03-18T13:53:02.060Z,5.36
2019-03-18T13:55:28.087Z,5.32
2019-03-18T13:57:53.946Z,5.29
2019-03-18T14:00:20.420Z,5.24
2019-03-18T14:02:46.391Z,5.19
2019-03-18T14:05:12.251Z,5.15
2019-03-18T14:07:38.092Z,5.13
2019-03-18T14:10:10.936Z,5.14
2019-03-18T14:12:37.155Z,5.12
2019-03-18T14:15:04.975Z,5.02
2019-03-18T14:17:30.895Z,4.97
2019-03-18T14:19:56.759Z,4.94
2019-03-18T14:22:22.617Z,4.88
2019-03-18T14:24:48.582Z,4.81
2019-03-18T14:27:14.545Z,4.76
2019-03-18T14:29:40.405Z,4.74
2019-03-18T14:32:06.384Z,4.73
2019-03-18T14:34:32.222Z,4.75
2019-03-18T14:36:58.088Z,4.75
2019-03-18T14:39:24.167Z,4.74
2019-03-18T14:41:50.102Z,4.69
2019-03-18T14:44:15.943Z,4.66
2019-03-18T14:46:41.820Z,4.64
2019-03-18T14:49:07.780Z,4.62
2019-03-18T14:51:45.130Z,4.63
2019-03-18T14:54:01.496Z,4.65
2019-03-18T14:56:27.344Z,4.64
2019-03-18T14:58:53.200Z,4.64
2019-03-18T15:01:19.294Z,4.65
2019-03-18T15:03:45.139Z,4.65
2019-03-18T15:06:11.098Z,4.66
2019-03-18T15:08:37.007Z,4.67
2019-03-18T15:11:03.018Z,4.67
2019-03-18T15:13:31.278Z,4.64
2019-03-18T15:15:57.450Z,4.62
2019-03-18T15:18:23.443Z,4.59
2019-03-18T15:20:49.369Z,4.57
2019-03-18T15:23:15.340Z,4.55
2019-03-18T15:25:41.315Z,4.55
2019-03-18T15:28:07.188Z,4.55
2019-03-18T15:30:33.065Z,4.54
2019-03-18T15:32:59.004Z,4.55
2019-03-18T15:35:24.856Z,4.56
2019-03-18T15:37:50.798Z,4.57
2019-03-18T15:40:18.576Z,4.55
2019-03-18T15:42:44.472Z,4.53
2019-03-18T15:45:11.640Z,4.50
2019-03-18T15:47:37.505Z,4.47
2019-03-18T15:50:05.296Z,4.43
2019-03-18T15:52:31.168Z,4.39
2019-03-18T15:54:57.070Z,4.35
2019-03-18T15:57:29.592Z,4.30
2019-03-18T15:59:50.821Z,4.26
2019-03-18T16:02:16.994Z,4.22
2019-03-18T16:04:42.865Z,4.18
2019-03-18T16:07:08.716Z,4.17
2019-03-18T16:09:34.582Z,4.15
2019-03-18T16:12:00.448Z,4.12
2019-03-18T16:14:26.409Z,4.08
2019-03-18T16:17:01.534Z,4.04
2019-03-18T16:19:20.062Z,4.03
2019-03-18T16:21:45.949Z,3.98
2019-03-18T16:24:11.834Z,3.96
2019-03-18T16:26:37.796Z,3.94
2019-03-18T16:29:03.730Z,3.92
2019-03-18T16:31:29.614Z,3.90
2019-03-18T16:33:55.482Z,3.88
2019-03-18T16:36:21.327Z,3.87
2019-03-18T16:38:47.204Z,3.60
2019-03-18T16:41:13.138Z,3.82
2019-03-18T16:43:38.999Z,3.79
2019-03-18T16:46:04.893Z,3.78
2019-03-18T16:48:31.638Z,3.78
2019-03-18T16:50:57.630Z,3.80
2019-03-18T16:53:23.508Z,3.78
2019-03-18T16:55:49.563Z,3.75
2019-03-18T16:58:15.425Z,3.72
2019-03-18T17:00:41.289Z,3.70
2019-03-18T17:03:07.308Z,3.68
2019-03-18T17:05:33.162Z,3.66
2019-03-18T17:07:59.067Z,3.62
2019-03-18T17:10:25.019Z,3.57
2019-03-18T17:12:50.890Z,3.52
2019-03-18T17:15:17.279Z,3.46
2019-03-18T17:17:43.218Z,3.42
2019-03-18T17:20:12.512Z,3.39
2019-03-18T17:22:48.017Z,3.37
2019-03-18T17:25:13.381Z,3.35
2019-03-18T17:27:39.473Z,3.30
2019-03-18T17:30:07.244Z,3.26
2019-03-18T17:32:33.190Z,3.25
2019-03-18T17:34:59.041Z,3.20
2019-03-18T17:37:25.041Z,3.18
2019-03-18T17:39:50.883Z,3.15
2019-03-18T17:42:16.847Z,3.11
2019-03-18T17:44:42.723Z,3.08
2019-03-18T17:47:08.587Z,3.03
2019-03-18T17:49:34.440Z,3.00
2019-03-18T17:52:00.314Z,3.01
2019-03-18T17:54:26.174Z,3.01
2019-03-18T17:56:52.037Z,2.98
2019-03-18T17:59:18.018Z,2.94
2019-03-18T18:01:43.859Z,2.93
2019-03-18T18:04:09.868Z,2.91
2019-03-18T18:06:35.877Z,2.91
2019-03-18T18:09:01.737Z,2.90
2019-03-18T18:11:27.592Z,2.87
2019-03-18T18:13:53.473Z,2.82
2019-03-18T18:16:19.530Z,2.78
2019-03-18T18:18:45.538Z,2.77
2019-03-18T18:21:11.444Z,2.76
2019-03-18T18:23:37.304Z,2.74
2019-03-18T18:26:03.261Z,2.73
2019-03-18T18:28:29.157Z,2.72
2019-03-18T18:30:54.978Z,2.71
2019-03-18T18:33:20.861Z,2.72
2019-03-18T18:35:46.757Z,2.71
2019-03-18T18:38:12.635Z,2.71
2019-03-18T18:40:38.588Z,2.71
2019-03-18T18:43:04.594Z,2.70
2019-03-18T18:45:30.460Z,2.69
2019-03-18T18:47:56.339Z,2.68
2019-03-18T18:50:22.243Z,2.66
2019-03-18T18:52:48.242Z,2.62
2019-03-18T18:55:14.133Z,2.61
2019-03-18T18:57:40.351Z,2.59
2019-03-18T19:00:15.885Z,2.58
2019-03-18T19:02:41.776Z,2.55
2019-03-18T19:05:08.728Z,2.51
2019-03-18T19:07:34.668Z,2.48
2019-03-18T19:10:00.656Z,2.45
2019-03-18T19:12:26.507Z,2.43
2019-03-18T19:14:52.473Z,2.41
2019-03-18T19:17:18.348Z,2.40
2019-03-18T19:19:44.192Z,2.39
2019-03-18T19:22:10.055Z,2.38
2019-03-18T19:24:35.938Z,2.35
2019-03-18T19:27:01.804Z,2.33
2019-03-18T19:29:27.652Z,2.31
2019-03-18T19:31:53.608Z,2.31
2019-03-18T19:34:19.568Z,2.31
2019-03-18T19:36:45.548Z,2.31
2019-03-18T19:39:11.514Z,2.30
2019-03-18T19:41:40.030Z,2.31
2019-03-18T19:44:05.095Z,2.31
2019-03-18T19:46:30.956Z,2.32
2019-03-18T19:48:56.817Z,2.32
2019-03-18T19:51:22.651Z,2.31
2019-03-18T19:53:49.578Z,2.28
2019-03-18T19:56:15.597Z,2.27
2019-03-18T19:58:41.568Z,2.26
2019-03-18T20:01:07.398Z,2.25
2019-03-18T20:03:33.271Z,2.24
2019-03-18T20:05:59.234Z,2.25
2019-03-18T20:08:25.208Z,2.26
2019-03-18T20:10:51.168Z,2.24
2019-03-18T20:13:17.122Z,2.22
2019-03-18T20:15:42.986Z,2.22
2019-03-18T20:18:08.840Z,2.20
2019-03-18T20:20:34.680Z,2.20
2019-03-18T20:23:00.737Z,2.18
2019-03-18T20:25:26.608Z,2.18
2019-03-18T20:27:52.461Z,2.19
2019-03-18T20:30:20.219Z,2.19
2019-03-18T20:32:46.184Z,2.18
2019-03-18T20:35:12.775Z,2.17
2019-03-18T20:37:38.645Z,2.14
2019-03-18T20:40:06.121Z,2.14
2019-03-18T20:42:31.962Z,2.14
2019-03-18T20:44:57.824Z,2.10
2019-03-18T20:47:23.719Z,2.08
2019-03-18T20:49:49.618Z,2.06
2019-03-18T20:52:16.960Z,2.04
2019-03-18T20:54:43.033Z,2.03
2019-03-18T20:57:08.879Z,2.01
2019-03-18T20:59:34.740Z,2.00
2019-03-18T21:02:02.290Z,2.01
2019-03-18T21:04:28.271Z,2.01
2019-03-18T21:06:54.305Z,1.98
2019-03-18T21:09:20.157Z,1.98
2019-03-18T21:11:46.012Z,1.95
2019-03-18T21:14:11.880Z,1.92
2019-03-18T21:16:37.757Z,1.91
2019-03-18T21:19:03.756Z,1.90
2019-03-18T21:21:29.644Z,1.90
2019-03-18T21:23:55.482Z,1.89
2019-03-18T21:26:21.347Z,1.85
2019-03-18T21:28:47.210Z,1.83
2019-03-18T21:31:13.069Z,1.82
2019-03-18T21:33:38.918Z,1.80
2019-03-18T21:36:04.789Z,1.77
2019-03-18T21:38:30.648Z,1.76
2019-03-18T21:40:56.524Z,1.74
2019-03-18T21:43:22.403Z,1.73
2019-03-18T21:45:48.243Z,1.70
2019-03-18T21:48:14.101Z,1.67
2019-03-18T21:50:39.990Z,1.64
2019-03-18T21:53:05.963Z,1.61
2019-03-18T21:55:31.809Z,1.58
2019-03-18T21:57:57.675Z,1.57
2019-03-18T22:00:23.530Z,1.55
2019-03-18T22:02:50.649Z,1.53
2019-03-18T22:05:16.628Z,1.49
2019-03-18T22:07:42.470Z,1.45
2019-03-18T22:10:09.527Z,1.43
2019-03-18T22:12:35.403Z,1.42
2019-03-18T22:15:01.346Z,1.41
2019-03-18T22:17:27.280Z,1.39
2019-03-18T22:19:53.134Z,1.37
2019-03-18T22:22:18.994Z,1.35
2019-03-18T22:24:45.773Z,1.34
2019-03-18T22:27:11.901Z,1.32
2019-03-18T22:29:37.734Z,1.30
2019-03-18T22:32:03.703Z,1.28
2019-03-18T22:34:29.593Z,1.27
2019-03-18T22:36:55.502Z,1.21
2019-03-18T22:39:21.365Z,1.16
2019-03-18T22:41:47.315Z,1.09
2019-03-18T22:44:13.576Z,1.02
2019-03-18T22:46:39.423Z,0.96
2019-03-18T22:49:05.326Z,0.91
2019-03-18T22:51:31.162Z,0.88
2019-03-18T22:53:57.043Z,0.85
2019-03-18T22:56:22.922Z,0.82
2019-03-18T22:58:48.801Z,0.80
2019-03-18T23:01:16.052Z,0.78
2019-03-18T23:03:42.103Z,0.75
2019-03-18T23:06:07.962Z,0.72
2019-03-18T23:08:33.830Z,0.68
2019-03-18T23:10:59.797Z,0.63
2019-03-18T23:13:25.638Z,0.61
2019-03-18T23:15:51.498Z,0.58
2019-03-18T23:18:17.695Z,0.55
2019-03-18T23:20:43.518Z,0.52
2019-03-18T23:23:09.379Z,0.51
2019-03-18T23:25:35.239Z,0.48
2019-03-18T23:28:01.406Z,0.47
2019-03-18T23:30:27.283Z,0.43
2019-03-18T23:32:53.142Z,0.39
2019-03-18T23:35:19.022Z,0.35
2019-03-18T23:37:44.871Z,0.30
2019-03-18T23:40:11.334Z,0.27
2019-03-18T23:42:37.316Z,0.24
2019-03-18T23:45:04.065Z,0.19
2019-03-18T23:47:30.028Z,0.16
2019-03-18T23:49:55.995Z,0.11
2019-03-18T23:52:21.834Z,0.07
2019-03-18T23:54:47.692Z,0.05
2019-03-18T23:57:13.550Z,0.06
2019-03-18T23:59:39.404Z,0.03
